Time;durP1;ratioP1;P1;durP2;ratioP2;P2;SDS_P1;SDS_P2;PMS_P1;PMS_P2;Temp;Humidity;BMP_temperature;BMP_pressure;BME280_temperature;BME280_humidity;BME280_pressure;Samples;Min_cycle;Max_cycle;Signal;HPM_P1;HPM_P2
2023/08/29 00:00:32;;;;;;;1.88;1.33;;;;;;;22.69;57.83;100630.72;5019942;27;98314;-66
2023/08/29 00:03:03;;;;;;;5.72;1.60;;;;;;;22.60;57.95;100620.75;5025802;27;98850;-67
2023/08/29 00:05:29;;;;;;;3.05;1.20;;;;;;;22.56;57.96;100609.41;5026039;27;100886;-67
2023/08/29 00:07:57;;;;;;;7.50;1.92;;;;;;;22.45;58.64;100604.09;5025049;27;97076;-67
2023/08/29 00:10:24;;;;;;;4.45;1.55;;;;;;;22.57;58.24;100605.72;5018202;27;97065;-67
2023/08/29 00:12:50;;;;;;;2.78;1.40;;;;;;;22.53;56.49;100598.88;5026132;27;97461;-67
2023/08/29 00:15:17;;;;;;;2.80;1.77;;;;;;;22.63;56.56;100605.19;5029447;27;99118;-67
2023/08/29 00:17:44;;;;;;;4.13;1.88;;;;;;;22.70;56.65;100610.03;5027576;27;96933;-67
2023/08/29 00:20:11;;;;;;;2.40;1.58;;;;;;;22.71;55.96;100606.34;5021133;27;97763;-67
2023/08/29 00:22:37;;;;;;;3.92;1.50;;;;;;;22.75;55.16;100602.41;5023939;27;99618;-65
2023/08/29 00:25:05;;;;;;;4.22;1.25;;;;;;;22.61;56.18;100596.38;5021731;27;98962;-65
2023/08/29 00:27:32;;;;;;;2.88;1.77;;;;;;;22.47;56.04;100599.44;5026245;27;96858;-66
2023/08/29 00:29:58;;;;;;;5.88;1.80;;;;;;;22.46;56.02;100603.09;5021774;27;97219;-65
2023/08/29 00:32:24;;;;;;;3.67;1.60;;;;;;;22.59;56.46;100597.50;5014241;27;101954;-65
2023/08/29 00:34:51;;;;;;;3.67;1.50;;;;;;;22.47;56.65;100602.13;5021814;27;101746;-66
2023/08/29 00:37:17;;;;;;;1.70;1.40;;;;;;;22.66;56.25;100601.34;5024119;27;97040;-67
2023/08/29 00:39:43;;;;;;;2.30;1.80;;;;;;;22.75;56.03;100605.13;5021075;27;96924;-66
2023/08/29 00:42:11;;;;;;;5.53;2.20;;;;;;;22.71;55.85;100606.34;5024801;27;98820;-66
2023/08/29 00:44:38;;;;;;;5.28;1.80;;;;;;;22.81;55.94;100594.66;5026544;27;98824;-66
2023/08/29 00:47:04;;;;;;;3.88;1.60;;;;;;;22.79;55.81;100593.06;5026083;27;99045;-65
2023/08/29 00:49:31;;;;;;;6.13;2.08;;;;;;;22.76;55.78;100605.00;5025329;27;97182;-67
2023/08/29 00:51:59;;;;;;;4.75;2.30;;;;;;;22.83;54.88;100602.59;5016984;27;98879;-66
2023/08/29 00:54:26;;;;;;;3.10;2.03;;;;;;;22.60;55.92;100593.81;5026689;27;99217;-66
2023/08/29 00:56:52;;;;;;;3.58;2.05;;;;;;;22.69;55.82;100600.25;5023368;27;96822;-66
2023/08/29 00:59:20;;;;;;;8.85;2.70;;;;;;;22.76;55.46;100598.75;5023519;27;97824;-67
2023/08/29 01:01:47;;;;;;;3.45;2.25;;;;;;;22.64;55.80;100603.34;5022972;27;99230;-67
2023/08/29 01:04:13;;;;;;;5.03;2.65;;;;;;;22.70;55.57;100599.25;5021291;27;100045;-67
2023/08/29 01:06:40;;;;;;;9.85;3.00;;;;;;;22.83;55.51;100591.81;5023169;27;96767;-67
2023/08/29 01:09:07;;;;;;;3.95;2.60;;;;;;;22.92;55.48;100593.69;5022375;27;98565;-67
2023/08/29 01:11:42;;;;;;;5.47;3.28;;;;;;;22.83;55.41;100595.38;5025975;27;99119;-67
2023/08/29 01:14:15;;;;;;;4.80;2.38;;;;;;;22.95;54.92;100593.41;5025104;27;98785;-67
2023/08/29 01:16:50;;;;;;;5.43;2.65;;;;;;;22.53;55.57;100598.88;5029459;27;96918;-67
2023/08/29 01:19:16;;;;;;;5.80;2.67;;;;;;;22.45;55.70;100605.94;5023615;27;97366;-66
2023/08/29 01:21:48;;;;;;;4.65;2.70;;;;;;;22.67;55.08;100609.31;5024536;27;98892;-67
2023/08/29 01:24:24;;;;;;;6.10;2.50;;;;;;;22.70;55.62;100608.19;5021161;27;97500;-66
2023/08/29 01:26:53;;;;;;;5.97;2.58;;;;;;;22.78;54.57;100605.69;5022209;27;96898;-67
2023/08/29 01:29:20;;;;;;;9.75;2.60;;;;;;;22.72;55.34;100599.94;5019287;27;96861;-66
2023/08/29 01:31:47;;;;;;;4.63;2.00;;;;;;;22.64;55.06;100596.09;5023864;27;99597;-66
2023/08/29 01:34:13;;;;;;;4.43;2.50;;;;;;;22.69;55.00;100593.00;5024658;27;98458;-66
2023/08/29 01:36:40;;;;;;;4.82;2.28;;;;;;;22.82;54.52;100588.28;5020726;27;96796;-66
2023/08/29 01:39:06;;;;;;;5.45;2.67;;;;;;;22.75;54.89;100602.41;5023055;27;96998;-66
2023/08/29 01:41:32;;;;;;;3.22;2.20;;;;;;;22.40;55.97;100609.03;5025692;27;98243;-66
2023/08/29 01:44:03;;;;;;;5.00;2.47;;;;;;;22.37;56.14;100617.38;5023816;27;97775;-66
2023/08/29 01:46:29;;;;;;;2.67;1.75;;;;;;;22.53;55.72;100612.34;5024954;27;96828;-66
2023/08/29 01:48:57;;;;;;;3.03;2.13;;;;;;;22.65;55.42;100608.56;5021983;27;96986;-66
2023/08/29 01:51:24;;;;;;;4.32;2.28;;;;;;;22.53;55.53;100608.81;5028089;27;99131;-66
2023/08/29 01:53:50;;;;;;;3.95;2.05;;;;;;;22.44;55.82;100604.25;5027350;27;98996;-66
2023/08/29 01:56:19;;;;;;;9.45;2.00;;;;;;;22.64;55.59;100603.34;5025532;27;96758;-66
2023/08/29 01:58:47;;;;;;;2.75;2.03;;;;;;;22.60;54.85;100588.44;5024496;27;96861;-66
2023/08/29 02:01:15;;;;;;;4.95;1.95;;;;;;;22.73;54.48;100588.22;5027800;27;98885;-66
2023/08/29 02:03:42;;;;;;;4.55;1.90;;;;;;;22.45;55.14;100584.41;5023640;27;99224;-65
2023/08/29 02:06:08;;;;;;;4.70;2.00;;;;;;;22.55;55.03;100588.84;5025823;27;96756;-66
2023/08/29 02:08:34;;;;;;;5.07;2.22;;;;;;;22.52;54.99;100575.63;5023821;27;96971;-66
2023/08/29 02:11:01;;;;;;;4.05;2.15;;;;;;;22.55;54.83;100571.84;5019908;27;99518;-66
2023/08/29 02:13:27;;;;;;;4.20;2.28;;;;;;;22.44;55.17;100570.09;5024233;27;101720;-66
2023/08/29 02:15:53;;;;;;;5.55;2.15;;;;;;;22.54;55.39;100562.03;5024282;27;97414;-67
2023/08/29 02:18:21;;;;;;;3.00;1.70;;;;;;;22.43;55.55;100570.22;5027662;27;96966;-67
2023/08/29 02:20:47;;;;;;;2.88;1.60;;;;;;;22.53;54.71;100574.66;5024661;27;99045;-67
2023/08/29 02:23:14;;;;;;;4.43;1.50;;;;;;;22.45;54.33;100577.16;5020196;27;98718;-67
2023/08/29 02:25:40;;;;;;;3.28;1.60;;;;;;;22.49;54.36;100586.69;5021616;27;97992;-67
2023/08/29 02:28:06;;;;;;;1.92;1.67;;;;;;;22.22;55.65;100589.94;5023163;27;97398;-68
2023/08/29 02:30:35;;;;;;;4.50;1.75;;;;;;;22.28;55.00;100599.31;5023489;27;99452;-67
2023/08/29 02:33:02;;;;;;;1.80;1.30;;;;;;;22.03;55.43;100583.59;5022965;27;99305;-66
2023/08/29 02:35:29;;;;;;;3.13;1.40;;;;;;;22.07;55.51;100583.19;5021523;27;97396;-66
2023/08/29 02:37:56;;;;;;;3.15;1.40;;;;;;;22.34;54.92;100587.16;5022685;27;99484;-66
2023/08/29 02:40:22;;;;;;;3.13;1.40;;;;;;;22.32;54.66;100589.16;5023428;27;100635;-67
2023/08/29 02:42:49;;;;;;;2.22;1.25;;;;;;;22.30;54.97;100588.44;5016197;27;98834;-66
2023/08/29 02:45:15;;;;;;;2.78;1.40;;;;;;;22.24;55.00;100587.97;5022502;27;97383;-66
2023/08/29 02:47:42;;;;;;;2.90;1.30;;;;;;;22.30;54.31;100581.22;5017491;27;96930;-67
2023/08/29 02:50:09;;;;;;;2.50;1.35;;;;;;;22.21;54.91;100587.38;5021203;27;98947;-67
2023/08/29 02:52:37;;;;;;;2.47;1.33;;;;;;;22.05;54.91;100579.78;5025955;27;98592;-67
2023/08/29 02:55:05;;;;;;;2.50;1.30;;;;;;;22.28;54.39;100569.72;5024538;27;97893;-67
2023/08/29 02:57:32;;;;;;;4.80;1.40;;;;;;;22.29;54.46;100562.50;5020289;27;98474;-67
2023/08/29 02:59:59;;;;;;;5.47;1.50;;;;;;;22.04;55.34;100563.78;5015831;27;98853;-66
2023/08/29 03:02:26;;;;;;;2.38;1.45;;;;;;;22.17;55.10;100570.66;5018996;27;98789;-65
2023/08/29 03:04:52;;;;;;;5.30;1.38;;;;;;;22.15;54.81;100569.94;5024622;27;97418;-66
2023/08/29 03:07:18;;;;;;;4.13;1.33;;;;;;;21.98;54.93;100559.78;5025321;27;96911;-66
2023/08/29 03:09:46;;;;;;;3.70;1.38;;;;;;;22.15;54.58;100550.22;5019062;27;99339;-66
2023/08/29 03:12:12;;;;;;;4.60;1.45;;;;;;;22.08;54.75;100554.44;5018228;27;99510;-66
2023/08/29 03:14:38;;;;;;;5.05;1.23;;;;;;;22.10;54.97;100536.34;5017793;27;97882;-67
2023/08/29 03:17:05;;;;;;;3.97;1.25;;;;;;;22.25;54.69;100535.84;5028546;27;97362;-67
2023/08/29 03:19:31;;;;;;;3.42;1.35;;;;;;;22.20;54.37;100523.78;5028870;27;102078;-67
2023/08/29 03:21:57;;;;;;;2.00;1.23;;;;;;;22.19;54.52;100527.44;5022709;27;99349;-66
2023/08/29 03:24:24;;;;;;;1.85;1.17;;;;;;;22.09;54.52;100518.47;5023895;27;97227;-66
2023/08/29 03:26:51;;;;;;;4.00;1.40;;;;;;;22.13;54.77;100514.53;5024343;27;97060;-66
2023/08/29 03:29:18;;;;;;;2.75;1.40;;;;;;;21.99;54.84;100514.91;5028084;27;101235;-66
2023/08/29 03:31:44;;;;;;;2.63;1.17;;;;;;;21.96;55.34;100517.84;5022280;27;99286;-66
2023/08/29 03:34:10;;;;;;;1.30;1.05;;;;;;;21.67;56.04;100522.97;5012889;27;98508;-66
2023/08/29 03:36:38;;;;;;;5.03;1.30;;;;;;;21.88;55.54;100519.31;5014431;27;96900;-66
2023/08/29 03:39:05;;;;;;;2.05;1.30;;;;;;;21.81;55.80;100512.75;5016880;27;99115;-66
2023/08/29 03:41:31;;;;;;;1.27;1.15;;;;;;;21.95;55.28;100513.41;5016233;27;99139;-66
2023/08/29 03:43:59;;;;;;;2.10;1.08;;;;;;;21.81;55.50;100514.59;5011014;27;98428;-66
2023/08/29 03:46:25;;;;;;;1.77;1.30;;;;;;;21.86;55.49;100501.59;5018658;27;97593;-66
2023/08/29 03:48:52;;;;;;;3.13;1.58;;;;;;;21.60;56.26;100501.13;5026426;27;98200;-66
2023/08/29 03:51:18;;;;;;;1.90;1.63;;;;;;;21.79;55.68;100481.63;5023366;27;100838;-66
2023/08/29 03:53:45;;;;;;;2.08;0.95;;;;;;;21.71;55.85;100476.91;5027892;27;97491;-66
2023/08/29 03:56:11;;;;;;;2.65;1.10;;;;;;;21.61;56.61;100478.66;5028865;27;96842;-65
2023/08/29 03:58:38;;;;;;;2.63;1.20;;;;;;;21.60;56.52;100474.25;5029009;27;99247;-66
2023/08/29 04:01:06;;;;;;;5.10;1.42;;;;;;;21.52;56.91;100479.47;5025875;27;99067;-65
2023/08/29 04:03:32;;;;;;;2.65;1.40;;;;;;;21.68;56.28;100474.47;5025716;27;97137;-65
2023/08/29 04:05:58;;;;;;;3.20;1.23;;;;;;;21.70;56.33;100480.56;5026302;27;96922;-65
2023/08/29 04:08:25;;;;;;;5.47;1.30;;;;;;;21.72;56.19;100478.59;5022637;27;98894;-66
2023/08/29 04:10:51;;;;;;;4.00;1.55;;;;;;;21.75;55.94;100472.94;5026794;27;99156;-66
2023/08/29 04:13:17;;;;;;;2.63;1.25;;;;;;;21.35;57.22;100480.00;5022601;27;96818;-66
2023/08/29 04:15:44;;;;;;;1.83;1.52;;;;;;;21.56;56.65;100480.88;5028041;27;98874;-66
2023/08/29 04:18:12;;;;;;;6.43;1.35;;;;;;;21.55;56.88;100491.75;5028064;27;99094;-66
2023/08/29 04:20:38;;;;;;;3.95;1.27;;;;;;;21.62;56.59;100495.63;5026874;27;99379;-66
2023/08/29 04:23:07;;;;;;;4.70;1.60;;;;;;;21.56;56.88;100491.63;5030189;27;97234;-66
2023/08/29 04:25:35;;;;;;;1.73;1.02;;;;;;;21.57;56.59;100490.66;5024930;27;97620;-66
2023/08/29 04:28:01;;;;;;;3.90;1.50;;;;;;;21.71;56.41;100493.03;5025704;27;99056;-66
2023/08/29 04:30:27;;;;;;;3.10;1.52;;;;;;;21.50;56.86;100489.47;5024200;27;98843;-66
2023/08/29 04:32:54;;;;;;;5.47;1.95;;;;;;;21.64;56.70;100485.63;5022737;27;97216;-66
2023/08/29 04:35:22;;;;;;;5.30;1.50;;;;;;;21.77;56.08;100486.28;5023337;27;99096;-66
2023/08/29 04:37:49;;;;;;;2.25;1.50;;;;;;;21.81;56.08;100485.84;5019170;27;99287;-66
2023/08/29 04:40:17;;;;;;;4.30;1.38;;;;;;;21.72;56.70;100488.50;5027110;27;98793;-66
2023/08/29 04:42:44;;;;;;;6.68;1.73;;;;;;;21.68;56.18;100493.28;5025186;27;96866;-66
2023/08/29 04:45:12;;;;;;;1.77;1.35;;;;;;;21.63;56.28;100495.50;5025525;27;101269;-66
2023/08/29 04:47:39;;;;;;;3.22;1.33;;;;;;;21.61;56.65;100496.63;5019800;27;99255;-66
2023/08/29 04:50:07;;;;;;;2.70;1.23;;;;;;;21.49;57.22;100503.91;5025485;27;99100;-65
2023/08/29 04:52:35;;;;;;;3.28;1.48;;;;;;;21.46;57.26;100504.16;5027063;27;96803;-65
2023/08/29 04:55:01;;;;;;;7.38;2.95;;;;;;;21.24;57.67;100505.13;5023506;27;96881;-65
2023/08/29 04:57:27;;;;;;;5.30;1.60;;;;;;;21.65;56.95;100501.63;5025581;27;101333;-65
2023/08/29 04:59:54;;;;;;;5.55;1.38;;;;;;;21.59;57.05;100499.47;5024796;27;98816;-66
2023/08/29 05:02:20;;;;;;;7.88;1.67;;;;;;;21.78;56.52;100498.72;5020542;27;97811;-65
2023/08/29 05:04:48;;;;;;;7.00;1.70;;;;;;;21.88;56.34;100496.94;5019344;27;97901;-66
2023/08/29 05:07:15;;;;;;;3.58;1.42;;;;;;;21.79;56.95;100493.19;5025282;27;100561;-66
2023/08/29 05:09:43;;;;;;;13.73;8.65;;;;;;;21.38;57.69;100491.38;5022648;27;98927;-66
2023/08/29 05:12:10;;;;;;;6.78;2.75;;;;;;;21.58;57.35;100478.94;5026297;27;96873;-66
2023/08/29 05:14:37;;;;;;;2.67;1.48;;;;;;;21.63;57.29;100490.13;5023460;27;96835;-66
2023/08/29 05:17:03;;;;;;;4.50;1.63;;;;;;;21.76;56.69;100482.72;5024516;27;101707;-66
2023/08/29 05:19:30;;;;;;;6.03;1.50;;;;;;;21.70;57.13;100499.38;5024644;27;99289;-66
2023/08/29 05:21:57;;;;;;;2.75;1.60;;;;;;;21.78;57.03;100504.13;5025334;27;96792;-66
2023/08/29 05:24:23;;;;;;;10.32;1.50;;;;;;;21.69;57.29;100495.00;5019188;27;97338;-67
2023/08/29 05:26:51;;;;;;;2.47;1.70;;;;;;;21.56;57.80;100504.22;5008885;27;99436;-65
2023/08/29 05:29:17;;;;;;;5.05;1.58;;;;;;;21.85;57.85;100497.22;5012924;27;99044;-66
2023/08/29 05:31:44;;;;;;;2.88;1.63;;;;;;;22.03;57.62;100502.88;5007870;27;99269;-67
2023/08/29 05:34:10;;;;;;;3.67;1.73;;;;;;;22.23;56.75;100507.38;5009037;27;98844;-66
2023/08/29 05:36:36;;;;;;;3.47;1.58;;;;;;;21.81;57.73;100509.22;5012106;27;99163;-65
2023/08/29 05:39:03;;;;;;;2.55;1.30;;;;;;;22.02;58.15;100502.00;5011526;27;98296;-66
2023/08/29 05:41:30;;;;;;;5.53;1.60;;;;;;;22.03;58.94;100498.34;5014778;27;96909;-66
2023/08/29 05:43:57;;;;;;;4.97;1.80;;;;;;;22.18;57.92;100494.31;5027485;27;96796;-66
2023/08/29 05:46:24;;;;;;;2.92;1.20;;;;;;;22.30;58.44;100505.84;5025299;27;99350;-66
2023/08/29 05:48:50;;;;;;;2.92;1.70;;;;;;;22.27;58.04;100495.34;5022846;27;100006;-67
2023/08/29 05:51:17;;;;;;;5.07;2.17;;;;;;;22.29;58.31;100493.38;5022269;27;98911;-66
2023/08/29 05:53:43;;;;;;;3.47;2.10;;;;;;;22.47;57.63;100496.25;5026792;27;98207;-65
2023/08/29 05:56:10;;;;;;;6.72;1.85;;;;;;;22.15;59.07;100496.41;5019725;27;99153;-67
2023/08/29 05:58:36;;;;;;;8.15;2.40;;;;;;;22.02;58.94;100506.53;5022663;27;99523;-65
2023/08/29 06:01:06;;;;;;;3.25;1.85;;;;;;;22.23;57.52;100510.91;5021411;27;98525;-65
2023/08/29 06:03:34;;;;;;;2.15;1.60;;;;;;;22.23;58.26;100516.28;5024487;27;97222;-66
2023/08/29 06:06:03;;;;;;;3.45;2.15;;;;;;;22.16;59.43;100523.19;5018452;27;99694;-66
2023/08/29 06:08:29;;;;;;;5.28;2.08;;;;;;;22.14;58.61;100519.78;5025808;27;99188;-65
2023/08/29 06:10:56;;;;;;;4.28;1.80;;;;;;;22.11;59.47;100509.31;5022134;27;96821;-66
2023/08/29 06:13:22;;;;;;;3.42;1.95;;;;;;;22.31;58.82;100502.16;5023286;27;98324;-66
2023/08/29 06:15:48;;;;;;;5.63;1.73;;;;;;;22.27;59.01;100500.72;5025092;27;97823;-67
2023/08/29 06:18:16;;;;;;;4.63;2.00;;;;;;;22.17;59.71;100506.06;5024707;27;101573;-66
2023/08/29 06:20:42;;;;;;;6.97;2.20;;;;;;;22.24;58.90;100506.38;5020092;27;96887;-65
2023/08/29 06:23:09;;;;;;;7.35;2.05;;;;;;;22.20;58.44;100494.16;5019246;27;98163;-66
2023/08/29 06:25:35;;;;;;;14.40;2.78;;;;;;;22.34;58.66;100491.13;5022265;27;99176;-65
2023/08/29 06:28:02;;;;;;;16.20;2.42;;;;;;;22.46;58.89;100494.56;5017847;27;97544;-65
2023/08/29 06:30:30;;;;;;;7.65;2.72;;;;;;;22.53;58.49;100501.09;5018282;27;98679;-67
2023/08/29 06:32:56;;;;;;;4.88;1.83;;;;;;;22.69;57.66;100509.53;5017859;27;96981;-66
2023/08/29 06:35:25;;;;;;;10.98;2.30;;;;;;;22.48;58.92;100497.97;5026567;27;98979;-66
2023/08/29 06:37:54;;;;;;;3.50;1.98;;;;;;;22.63;58.21;100500.16;5020817;27;98828;-66
2023/08/29 06:40:21;;;;;;;6.03;2.70;;;;;;;22.67;58.63;100506.09;5023054;27;98697;-65
2023/08/29 06:42:47;;;;;;;4.15;2.13;;;;;;;22.76;57.23;100512.56;5022000;27;97748;-66
2023/08/29 06:45:14;;;;;;;7.43;2.40;;;;;;;22.50;58.65;100518.41;5023170;27;98990;-66
2023/08/29 06:47:40;;;;;;;6.10;2.28;;;;;;;22.68;58.35;100521.28;5022408;27;98749;-65
2023/08/29 06:50:08;;;;;;;3.92;2.10;;;;;;;22.43;58.72;100529.84;5023820;27;99121;-66
2023/08/29 06:52:36;;;;;;;7.22;1.98;;;;;;;22.49;58.71;100532.00;5029821;27;100926;-65
2023/08/29 06:55:03;;;;;;;6.15;2.38;;;;;;;22.66;58.64;100534.88;5021105;27;99265;-67
2023/08/29 06:57:29;;;;;;;8.32;2.53;;;;;;;22.36;58.69;100543.00;5019849;27;98717;-66
2023/08/29 06:59:55;;;;;;;3.10;2.28;;;;;;;22.34;59.14;100547.63;5025613;27;97304;-66
2023/08/29 07:02:22;;;;;;;5.78;2.45;;;;;;;22.31;60.60;100547.94;5023387;27;96906;-66
2023/08/29 07:04:48;;;;;;;3.60;1.88;;;;;;;22.51;59.52;100563.16;5021307;27;98896;-66
2023/08/29 07:07:15;;;;;;;5.22;2.33;;;;;;;22.47;58.98;100567.13;5023289;27;99165;-65
2023/08/29 07:09:43;;;;;;;3.33;2.25;;;;;;;22.38;59.38;100573.31;5023560;27;96892;-65
2023/08/29 07:12:09;;;;;;;7.18;2.80;;;;;;;22.23;60.42;100588.97;5027434;27;96885;-66
2023/08/29 07:14:36;;;;;;;5.22;2.33;;;;;;;22.63;58.36;100594.41;5024407;27;98905;-66
2023/08/29 07:17:03;;;;;;;5.47;2.60;;;;;;;22.57;58.70;100600.34;5029827;27;98822;-66
2023/08/29 07:19:29;;;;;;;4.25;2.35;;;;;;;22.44;59.12;100598.84;5026875;27;96827;-66
2023/08/29 07:21:56;;;;;;;4.15;2.42;;;;;;;22.60;58.91;100589.28;5022217;27;96843;-66
2023/08/29 07:24:22;;;;;;;4.70;2.63;;;;;;;22.44;58.96;100597.03;5022044;27;97597;-67
2023/08/29 07:26:50;;;;;;;7.10;2.35;;;;;;;22.47;58.74;100606.66;5030281;27;99098;-67
2023/08/29 07:29:17;;;;;;;6.53;2.30;;;;;;;22.24;59.05;100614.91;5022574;27;96841;-67
2023/08/29 07:31:43;;;;;;;5.88;2.35;;;;;;;22.29;59.54;100616.31;5028646;27;97451;-67
2023/08/29 07:34:11;;;;;;;4.07;2.85;;;;;;;22.54;59.33;100615.91;5026655;27;98971;-67
2023/08/29 07:36:38;;;;;;;8.70;3.00;;;;;;;22.45;59.67;100617.53;5020839;27;101743;-66
2023/08/29 07:39:04;;;;;;;7.80;2.80;;;;;;;22.53;59.66;100606.09;5019206;27;98066;-67
2023/08/29 07:41:30;;;;;;;8.23;2.75;;;;;;;22.45;60.03;100601.38;5017677;27;96948;-66
2023/08/29 07:43:58;;;;;;;6.22;2.80;;;;;;;22.45;61.16;100611.34;5026996;27;99129;-66
2023/08/29 07:46:25;;;;;;;6.38;3.08;;;;;;;22.47;61.90;100596.72;5016273;27;98805;-66
2023/08/29 07:48:51;;;;;;;12.45;3.35;;;;;;;22.43;62.85;100591.75;5024444;27;97295;-65
2023/08/29 07:51:17;;;;;;;8.50;3.78;;;;;;;22.33;63.19;100602.47;5025990;27;96870;-65
2023/08/29 07:53:44;;;;;;;8.48;3.50;;;;;;;22.13;64.27;100595.25;5019631;27;99105;-65
2023/08/29 07:56:10;;;;;;;10.27;3.50;;;;;;;22.34;64.30;100606.00;5022292;27;98882;-65
2023/08/29 07:58:37;;;;;;;7.22;3.67;;;;;;;22.34;63.88;100609.56;5024328;27;96828;-65
2023/08/29 08:01:05;;;;;;;6.28;4.15;;;;;;;22.26;64.89;100618.28;5020640;27;97573;-66
2023/08/29 08:03:34;;;;;;;8.55;4.38;;;;;;;22.17;65.75;100618.25;5016003;27;98980;-66
2023/08/29 08:06:00;;;;;;;9.02;3.78;;;;;;;22.22;65.24;100610.63;5019232;27;99254;-64
2023/08/29 08:08:27;;;;;;;6.40;3.67;;;;;;;22.23;65.10;100605.09;5020906;27;96924;-66
2023/08/29 08:10:54;;;;;;;9.70;4.22;;;;;;;22.53;64.63;100598.88;5021242;27;96861;-65
2023/08/29 08:13:20;;;;;;;6.68;3.78;;;;;;;22.38;65.76;100594.00;5019417;27;99033;-64
2023/08/29 08:15:47;;;;;;;9.35;4.00;;;;;;;22.14;66.80;100605.03;5024335;27;101406;-64
2023/08/29 08:18:14;;;;;;;4.75;3.45;;;;;;;22.33;65.66;100607.84;5021650;27;97005;-64
2023/08/29 08:20:42;;;;;;;8.63;3.85;;;;;;;22.31;65.40;100603.59;5024836;27;97838;-66
2023/08/29 08:23:08;;;;;;;6.72;4.10;;;;;;;22.58;66.02;100604.72;5020852;27;99995;-66
2023/08/29 08:25:35;;;;;;;7.38;3.70;;;;;;;22.37;65.21;100603.91;5023129;27;98783;-67
2023/08/29 08:28:02;;;;;;;5.85;3.60;;;;;;;22.69;63.00;100595.72;5025770;27;97330;-65
2023/08/29 08:30:29;;;;;;;4.35;3.67;;;;;;;22.70;62.52;100593.88;5023533;27;97445;-64
2023/08/29 08:32:55;;;;;;;6.05;3.92;;;;;;;22.81;64.23;100594.66;5020377;27;98884;-64
2023/08/29 08:35:24;;;;;;;4.97;3.85;;;;;;;22.67;64.78;100601.22;5020209;27;99239;-65
2023/08/29 08:37:50;;;;;;;5.43;4.07;;;;;;;22.87;63.60;100604.03;5019905;27;97402;-67
2023/08/29 08:40:17;;;;;;;12.38;3.85;;;;;;;22.72;63.59;100603.50;5019126;27;99196;-66
2023/08/29 08:42:44;;;;;;;4.50;3.50;;;;;;;22.30;63.90;100612.66;5019538;27;100945;-66
2023/08/29 08:45:11;;;;;;;4.93;3.80;;;;;;;22.92;63.90;100605.31;5021337;27;98801;-66
2023/08/29 08:47:39;;;;;;;11.05;4.22;;;;;;;22.76;64.33;100609.53;5018783;27;97749;-66
2023/08/29 08:50:08;;;;;;;11.32;4.53;;;;;;;23.09;63.65;100605.66;5013467;27;98149;-66
2023/08/29 08:52:38;;;;;;;10.55;4.20;;;;;;;23.27;63.72;100604.84;5015875;27;98901;-66
2023/08/29 08:55:06;;;;;;;5.00;3.33;;;;;;;23.40;61.32;100602.75;5021435;27;99391;-66
2023/08/29 08:57:32;;;;;;;5.35;3.20;;;;;;;23.42;60.36;100584.59;5017020;27;97478;-66
2023/08/29 08:59:59;;;;;;;6.70;4.25;;;;;;;23.81;59.34;100598.97;5015222;27;96931;-66
2023/08/29 09:02:26;;;;;;;5.80;3.85;;;;;;;23.96;58.93;100593.97;5022363;27;100076;-65
2023/08/29 09:04:53;;;;;;;8.77;3.55;;;;;;;23.98;58.84;100583.88;5022844;27;99451;-65
2023/08/29 09:07:20;;;;;;;8.38;3.70;;;;;;;23.89;59.39;100592.00;5022350;27;96853;-65
2023/08/29 09:12:55;;;;;;;4.93;3.35;;;;;;;24.03;59.54;100586.13;5018482;27;98456;-65
2023/08/29 09:15:22;;;;;;;6.93;3.40;;;;;;;24.46;57.66;100578.41;5025545;27;98881;-65
2023/08/29 09:17:49;;;;;;;6.93;2.85;;;;;;;24.06;56.39;100562.44;5020547;27;99358;-66
2023/08/29 09:20:16;;;;;;;7.13;2.83;;;;;;;24.47;55.76;100568.47;5018382;27;98852;-67
2023/08/29 09:22:43;;;;;;;5.00;2.67;;;;;;;24.43;56.89;100573.28;5019962;27;98188;-67
2023/08/29 09:25:12;;;;;;;5.20;2.53;;;;;;;24.44;55.62;100568.75;5020748;27;98793;-66
2023/08/29 09:27:40;;;;;;;5.38;2.85;;;;;;;24.63;55.40;100568.66;5022080;27;96987;-66
2023/08/29 09:30:11;;;;;;;3.47;2.88;;;;;;;24.22;57.10;100565.38;5015019;27;98652;-66
2023/08/29 09:32:40;;;;;;;3.55;3.03;;;;;;;24.27;57.29;100562.28;5013937;27;98884;-66
2023/08/29 09:35:08;;;;;;;8.82;2.88;;;;;;;24.61;55.82;100568.81;5018634;27;99235;-68
2023/08/29 09:37:50;;;;;;;8.95;2.97;;;;;;;24.62;55.44;100562.41;5023886;27;98191;-66
2023/08/29 09:40:18;;;;;;;3.25;2.35;;;;;;;24.63;54.87;100564.13;5022495;27;97930;-66
2023/08/29 09:42:53;;;;;;;2.22;2.03;;;;;;;24.16;54.04;100565.94;5024667;27;98854;-66
2023/08/29 09:45:19;;;;;;;3.53;2.42;;;;;;;24.23;55.17;100564.41;5020670;27;98798;-65
2023/08/29 09:47:46;;;;;;;3.40;2.50;;;;;;;23.87;56.36;100581.34;5011930;27;97146;-66
2023/08/29 09:50:12;;;;;;;7.90;3.65;;;;;;;23.88;56.84;100574.97;5016652;27;96983;-65
2023/08/29 09:52:40;;;;;;;5.90;3.10;;;;;;;23.71;58.39;100583.75;5016105;27;99071;-65
2023/08/29 09:55:09;;;;;;;5.25;3.00;;;;;;;23.87;58.81;100578.66;5021479;27;98971;-65
2023/08/29 09:57:38;;;;;;;5.03;3.40;;;;;;;24.06;55.78;100575.91;5022482;27;97698;-65
2023/08/29 10:00:09;;;;;;;3.00;2.55;;;;;;;24.45;55.86;100555.09;5018423;27;97445;-66
2023/08/29 10:02:36;;;;;;;3.88;3.10;;;;;;;24.57;55.53;100544.94;5016939;27;105420;-65
2023/08/29 10:05:06;;;;;;;5.00;2.58;;;;;;;24.71;53.01;100549.88;5013660;27;99036;-66
2023/08/29 10:07:38;;;;;;;4.00;2.15;;;;;;;24.73;53.34;100547.03;5009314;27;101035;-66
2023/08/29 10:10:08;;;;;;;5.63;2.47;;;;;;;24.56;54.70;100562.16;5019027;27;98710;-63
2023/08/29 10:12:35;;;;;;;3.70;2.42;;;;;;;24.24;55.91;100562.56;5013995;27;97929;-66
2023/08/29 10:15:04;;;;;;;4.20;2.35;;;;;;;24.35;54.79;100559.66;5018230;27;99316;-65
2023/08/29 10:17:31;;;;;;;3.90;2.40;;;;;;;24.50;53.74;100538.44;5025528;27;97419;-65
2023/08/29 10:19:59;;;;;;;4.97;2.75;;;;;;;24.47;54.90;100538.75;5018305;27;98163;-65
2023/08/29 10:22:29;;;;;;;7.82;2.67;;;;;;;24.22;55.93;100534.84;5014653;27;101626;-66
2023/08/29 10:24:57;;;;;;;7.20;2.70;;;;;;;24.36;56.19;100528.13;5022428;27;97951;-65
2023/08/29 10:27:23;;;;;;;3.30;2.83;;;;;;;24.53;53.55;100530.06;5015147;27;96871;-65
2023/08/29 10:29:53;;;;;;;2.40;2.10;;;;;;;24.42;54.05;100531.06;5018115;27;99374;-65
2023/08/29 10:32:22;;;;;;;4.53;2.75;;;;;;;24.46;53.41;100524.41;5014387;27;97051;-64
2023/08/29 10:34:50;;;;;;;7.35;2.30;;;;;;;24.36;52.94;100530.81;5019172;27;99897;-64
2023/08/29 10:37:17;;;;;;;4.43;3.60;;;;;;;24.38;53.43;100532.38;5015007;27;98357;-65
2023/08/29 10:39:44;;;;;;;8.10;3.17;;;;;;;24.07;53.08;100539.84;5018819;27;96967;-65
2023/08/29 10:42:13;;;;;;;4.82;2.60;;;;;;;24.25;54.76;100542.66;5019632;27;99586;-64
2023/08/29 10:44:42;;;;;;;4.72;2.38;;;;;;;24.37;53.21;100537.91;5019034;27;101799;-66
2023/08/29 10:47:20;;;;;;;3.05;2.80;;;;;;;24.42;53.96;100538.31;5014001;27;98472;-65
2023/08/29 10:49:48;;;;;;;3.10;2.28;;;;;;;24.46;53.65;100540.59;5016425;27;97747;-64
2023/08/29 10:52:18;;;;;;;4.40;2.97;;;;;;;24.23;53.17;100536.53;5018665;27;99040;-63
2023/08/29 10:54:45;;;;;;;2.97;2.58;;;;;;;23.91;55.46;100533.31;5021699;27;99251;-65
2023/08/29 10:57:28;;;;;;;4.00;3.13;;;;;;;23.95;54.50;100530.22;5013764;27;98423;-64
2023/08/29 10:59:55;;;;;;;5.25;3.17;;;;;;;24.10;54.55;100530.59;5022037;27;97130;-64
2023/08/29 11:02:22;;;;;;;4.68;2.60;;;;;;;24.42;53.48;100530.22;5018301;27;99441;-64
2023/08/29 11:04:51;;;;;;;3.35;2.92;;;;;;;24.47;52.79;100536.91;5023766;27;98757;-64
2023/08/29 11:07:23;;;;;;;3.83;2.78;;;;;;;24.28;54.33;100549.63;5023057;27;97349;-64
2023/08/29 11:10:17;;;;;;;5.28;3.20;;;;;;;24.00;53.67;100554.06;5017421;27;98153;-65
2023/08/29 11:13:06;;;;;;;5.10;3.08;;;;;;;24.37;53.06;100536.06;5021607;27;100007;-65
2023/08/29 11:16:03;;;;;;;4.25;3.30;;;;;;;24.21;52.78;100547.50;5022904;27;99098;-63
2023/08/29 11:18:32;;;;;;;5.88;3.50;;;;;;;24.27;54.08;100545.22;5022155;27;96856;-64
2023/08/29 11:21:04;;;;;;;5.97;3.38;;;;;;;24.58;52.21;100531.31;5014090;27;96836;-64
2023/08/29 11:23:34;;;;;;;7.13;3.45;;;;;;;24.47;52.57;100531.50;5017377;27;98950;-65
2023/08/29 11:26:01;;;;;;;3.83;3.13;;;;;;;24.86;51.25;100521.34;5017241;27;99803;-67
2023/08/29 11:28:27;;;;;;;4.28;2.85;;;;;;;24.75;51.17;100510.72;5012098;27;98101;-65